New Dayton, Canada
Current Conditions -  °F | °C
As of 7:00 AM on Friday 24 Oct 2014 (Local Time) from CYQL Reporting Station
Scattered Clouds Scattered Clouds  
Wind Chill: 36°   Ceiling: Unl
Heat Index: 45°   Visibility: 25mi
Dew Point: 27°   Wind: 23mph
Humidity: 49%   Direction: 240°WSW
Pressure: 29.86"   Gusts: 30mph
Location:  49.42°N, 112.38°W
Report Text: CYQL 241300Z 24020G26KT 25SM SCT270 07/M03 A2986 RMK CI4 SLP122
Loading
Personal Weather Stations






























Interactive Weather Map
Tropical Storm Tracking
New forecast layout! Learn more

10-Day Weather Forecast

Advertisements
Track Severe Weather on mobile